Current Conditions
Partly Cloudy
Conditions



Pressure
30 (inHG) - 1015.92 (mb)
Visibility

9.9 (miles) - 16.0 (km)
Temperature
63  °F
Temperature
37  °F
Dewpoint
39  %
 Humidity
Wind Speed
7  mph
6  kts
11  km/h
3.1  m/s
Wind Direction
N
45°
E
90°
135°
S
180°
225°
W
270°
315°
Calm

Due North
Airport Data
KMHT
Manchester-Boston Regional Airport
Metar :KMHT 131753Z VRB06KT 10SM FEW045 BKN070 17/03 A3000 RMK AO2 SLP174 T01720033 10178 20083 58008
Tue 13th April 13:53 pm
Raw Metar Info
Raw METAR is the most common format in the world for the transmission of observational weather data. It is highly standardized through the International Civil Aviation Organization (ICAO), which allows it to be understood throughout most of the world.
API Info
Data Provided by
https://www.checkwx.com/weather/KMHT

Aviation Weather providing METAR, TAF, AIRMET, SIGMET and OUTLOOK Weather Reports
© Info
CSS/SVG/PHP scripts were developed by weather34.com for use in the weather34 template © 2015-2021

Guide Info provided by Metar-Wikipedia